Grant County Airport

Airport
ICAO code: 
KSVC
Summary
ICAO Region: 
NAM
Territory: 
Location: 
Silver City, New Mexico,
Coordinates: 
Aerial View: 
32° 38' 19.161" N, 108° 9' 24.987" W
Airport RE: 
Hot and High Operations
Metar
Observation
KSVC 040635Z AUTO 35008KT 10SM BKN110 05/M03 A3019 RMK AO2 T00511035
Station
Silver City / Grant
Date/Time
2021-12-04 06:35:00
Wind direction
350°
Wind speed
08 kts
Lowest cloud amount
broken clouds
Temperature
5.1°C
Dew point
-3.5°C
Humidity
53%
Weather condition
n/a

Description

Grant County Airport is a public use airport located 19 km southeast of the central business district of Silver City, in Grant County, New Mexico.

Climatology

A semi-arid climate (Köppen climate classification BSk), with generally cold, dry winters and hot summers. Late spring and early summer is on average the wettest period of the year.

Runways

Designator Length Width Surface Rops
3/21 1413 24 GRE No/No
12/30 1425 23 GRE No/No
17/35 1668 23 GRE No/No
8/26 2073 30 ASP Yes/Yes
Airport map: 
Aerial View: 

SKYbrary Partners:

Safety knowledge contributed by: